Time;durP1;ratioP1;P1;durP2;ratioP2;P2;SDS_P1;SDS_P2;PMS_P1;PMS_P2;Temp;Humidity;BMP_temperature;BMP_pressure;BME280_temperature;BME280_humidity;BME280_pressure;Samples;Min_cycle;Max_cycle;Signal;HPM_P1;HPM_P2
2023/04/20 00:00:36;;;;;;;4.03;2.37;;;;;;;7.64;100.00;102434.19;5018943;28;20253;-62
2023/04/20 00:03:02;;;;;;;3.93;2.57;;;;;;;7.60;100.00;102422.91;5027056;28;20195;-64
2023/04/20 00:05:28;;;;;;;5.50;2.50;;;;;;;7.56;100.00;102405.69;5027288;28;20182;-64
2023/04/20 00:07:54;;;;;;;4.83;2.60;;;;;;;7.57;100.00;102401.47;5021110;28;20245;-63
2023/04/20 00:10:19;;;;;;;7.30;3.10;;;;;;;7.57;100.00;102397.25;5020392;28;20186;-64
2023/04/20 00:12:45;;;;;;;4.60;2.30;;;;;;;7.57;100.00;102401.47;5017851;28;20187;-64
2023/04/20 00:15:10;;;;;;;3.97;2.23;;;;;;;7.53;100.00;102386.78;5020634;28;20182;-64
2023/04/20 00:17:37;;;;;;;3.13;2.10;;;;;;;7.54;100.00;102386.88;5024011;28;20213;-64
2023/04/20 00:20:03;;;;;;;6.00;2.30;;;;;;;7.59;100.00;102385.47;5027801;28;20197;-64
2023/04/20 00:22:29;;;;;;;5.33;2.30;;;;;;;7.61;100.00;102388.97;5018314;28;20260;-63
2023/04/20 00:24:55;;;;;;;3.30;2.10;;;;;;;7.50;100.00;102392.59;5019714;28;20553;-63
2023/04/20 00:27:20;;;;;;;5.50;2.20;;;;;;;7.57;100.00;102366.69;5018742;28;20242;-65
2023/04/20 00:29:46;;;;;;;5.03;2.03;;;;;;;7.59;100.00;102366.75;5008148;28;20273;-65
2023/04/20 00:32:11;;;;;;;4.63;2.20;;;;;;;7.58;100.00;102370.97;5024291;28;20220;-64
2023/04/20 00:34:39;;;;;;;5.73;2.43;;;;;;;7.50;100.00;102374.75;5027691;28;20182;-65
2023/04/20 00:37:05;;;;;;;4.17;2.50;;;;;;;7.46;100.00;102370.28;5008344;28;20192;-65
2023/04/20 00:39:30;;;;;;;5.77;2.90;;;;;;;7.50;100.00;102359.47;5019017;28;20284;-64
2023/04/20 00:42:04;;;;;;;4.73;2.47;;;;;;;7.55;100.00;102358.06;5015236;28;20269;-63
2023/04/20 00:44:29;;;;;;;4.40;2.27;;;;;;;7.51;100.00;102358.66;5021716;28;20232;-64
2023/04/20 00:46:56;;;;;;;5.47;2.20;;;;;;;7.35;100.00;102367.91;5005576;28;20210;-65
2023/04/20 00:49:24;;;;;;;7.20;3.00;;;;;;;7.35;100.00;102360.28;5010492;28;20201;-65
2023/04/20 00:51:49;;;;;;;5.23;2.57;;;;;;;7.34;100.00;102361.06;5009118;28;20675;-65
2023/04/20 00:54:15;;;;;;;4.53;2.90;;;;;;;7.24;100.00;102366.44;5009926;28;20195;-65
2023/04/20 00:56:41;;;;;;;10.07;3.17;;;;;;;7.32;100.00;102362.66;5017902;28;20192;-65
2023/04/20 00:59:07;;;;;;;7.03;3.00;;;;;;;7.26;100.00;102363.19;5009069;28;20209;-64
2023/04/20 01:01:33;;;;;;;5.57;2.90;;;;;;;7.21;100.00;102353.53;5018824;28;20222;-64
2023/04/20 01:03:59;;;;;;;6.43;2.80;;;;;;;7.09;100.00;102351.16;5026914;28;20198;-64
2023/04/20 01:06:28;;;;;;;10.27;2.87;;;;;;;7.14;100.00;102339.56;5020947;28;20580;-63
2023/04/20 01:08:53;;;;;;;5.90;3.10;;;;;;;6.96;100.00;102335.97;5008330;28;20257;-65
2023/04/20 01:11:19;;;;;;;8.27;3.67;;;;;;;6.97;100.00;102330.09;5009233;28;20236;-64
2023/04/20 01:13:44;;;;;;;8.50;3.53;;;;;;;7.01;100.00;102339.66;5018411;28;20195;-65
2023/04/20 01:16:10;;;;;;;7.53;3.30;;;;;;;6.94;100.00;102340.09;5022292;28;20194;-65
2023/04/20 01:18:45;;;;;;;9.93;3.40;;;;;;;6.87;100.00;102337.97;5027643;28;20741;-64
2023/04/20 01:21:12;;;;;;;7.33;3.70;;;;;;;6.87;100.00;102345.63;5016715;28;20217;-66
2023/04/20 01:23:37;;;;;;;6.27;3.70;;;;;;;6.96;100.00;102342.75;5005418;28;20194;-65
2023/04/20 01:26:08;;;;;;;5.03;3.50;;;;;;;6.92;100.00;102335.72;5002346;28;20214;-65
2023/04/20 01:28:34;;;;;;;8.70;3.50;;;;;;;6.96;100.00;102335.97;5011728;28;20210;-65
2023/04/20 01:31:00;;;;;;;13.77;3.70;;;;;;;6.86;100.00;102331.13;5020289;28;20244;-64
2023/04/20 01:33:26;;;;;;;7.23;3.27;;;;;;;6.96;100.00;102340.19;5004195;28;20320;-65
2023/04/20 01:35:52;;;;;;;6.83;3.43;;;;;;;6.96;100.00;102335.09;5007586;28;20707;-64
2023/04/20 01:38:19;;;;;;;7.80;3.70;;;;;;;6.99;100.00;102328.50;5005601;28;20210;-65
2023/04/20 01:40:44;;;;;;;5.50;3.20;;;;;;;6.97;100.00;102319.91;5018334;28;20206;-65
2023/04/20 01:43:10;;;;;;;8.13;3.53;;;;;;;6.93;100.00;102322.19;5023090;28;20199;-64
2023/04/20 01:45:37;;;;;;;7.63;3.83;;;;;;;6.95;100.00;102310.44;5005953;28;20199;-64
2023/04/20 01:48:03;;;;;;;9.30;3.80;;;;;;;6.81;100.00;102296.03;5022507;28;20584;-64
2023/04/20 01:50:28;;;;;;;8.33;3.80;;;;;;;6.83;100.00;102279.19;5022942;28;20183;-65
2023/04/20 01:52:53;;;;;;;6.97;3.20;;;;;;;6.88;100.00;102293.03;5004568;28;20183;-65
2023/04/20 01:55:19;;;;;;;6.47;3.67;;;;;;;6.89;100.00;102292.25;5025035;28;20643;-65
2023/04/20 01:57:44;;;;;;;6.30;3.37;;;;;;;6.88;100.00;102299.03;5008638;28;20206;-64
2023/04/20 02:00:11;;;;;;;6.57;3.40;;;;;;;6.82;100.00;102292.69;5018062;28;21206;-65
2023/04/20 02:02:42;;;;;;;7.07;3.53;;;;;;;6.77;100.00;102294.09;5011445;28;20191;-65
2023/04/20 02:05:08;;;;;;;7.07;3.43;;;;;;;6.72;100.00;102288.72;5022435;28;20691;-64
2023/04/20 02:07:34;;;;;;;10.00;4.20;;;;;;;6.77;100.00;102269.50;5011032;28;20198;-65
2023/04/20 02:09:59;;;;;;;6.97;3.50;;;;;;;6.78;100.00;102263.63;5020956;28;20251;-66
2023/04/20 02:12:24;;;;;;;7.13;3.73;;;;;;;6.77;100.00;102268.66;5022999;28;20186;-64
2023/04/20 02:14:50;;;;;;;7.37;3.63;;;;;;;6.77;100.00;102268.66;5020712;28;20195;-65
2023/04/20 02:17:16;;;;;;;9.03;3.37;;;;;;;6.76;100.00;102285.56;5023610;28;20214;-64
2023/04/20 02:19:42;;;;;;;5.67;3.27;;;;;;;6.78;100.00;102284.00;5013490;28;20209;-64
2023/04/20 02:22:08;;;;;;;6.90;3.40;;;;;;;6.76;100.00;102287.22;5003144;28;20549;-63
2023/04/20 02:24:33;;;;;;;6.97;4.00;;;;;;;6.81;100.00;102271.44;5022743;28;20194;-65
2023/04/20 02:27:00;;;;;;;8.80;3.53;;;;;;;6.87;100.00;102273.47;5006813;28;20221;-64
2023/04/20 02:29:25;;;;;;;6.17;3.33;;;;;;;6.76;100.00;102272.84;5021602;28;20218;-64
2023/04/20 02:31:50;;;;;;;7.53;3.40;;;;;;;6.78;100.00;102268.72;5021243;28;20218;-65
2023/04/20 02:34:16;;;;;;;7.00;3.17;;;;;;;6.79;100.00;102267.06;5005411;28;20206;-64
2023/04/20 02:36:41;;;;;;;7.17;3.13;;;;;;;6.73;100.00;102270.13;5020891;28;20222;-64
2023/04/20 02:39:07;;;;;;;4.73;3.27;;;;;;;6.78;100.00;102260.22;5020389;28;20322;-65
2023/04/20 02:41:32;;;;;;;5.90;3.20;;;;;;;6.77;100.00;102263.56;5024168;28;20632;-64
2023/04/20 02:44:00;;;;;;;4.87;3.03;;;;;;;6.81;100.00;102266.34;5008042;28;20202;-65
2023/04/20 02:46:26;;;;;;;6.20;3.43;;;;;;;6.82;100.00;102265.56;5021139;28;20183;-64
2023/04/20 02:48:51;;;;;;;5.50;3.03;;;;;;;6.84;100.00;102270.75;5001879;28;20293;-64
2023/04/20 02:51:17;;;;;;;6.90;2.87;;;;;;;6.87;100.00;102268.38;5009627;28;20183;-65
2023/04/20 02:53:44;;;;;;;8.37;3.60;;;;;;;6.84;100.00;102271.63;5005025;28;20194;-64
2023/04/20 02:56:28;;;;;;;8.93;3.33;;;;;;;6.85;100.00;102273.38;5021145;28;20193;-64
2023/04/20 02:58:57;;;;;;;5.97;3.23;;;;;;;6.85;100.00;102265.75;5010760;28;20202;-64
2023/04/20 03:01:43;;;;;;;7.10;3.53;;;;;;;6.85;100.00;102265.75;5014949;28;20215;-64
2023/04/20 03:04:13;;;;;;;6.73;3.20;;;;;;;6.83;100.00;102267.34;5003865;28;20660;-65
2023/04/20 03:06:45;;;;;;;8.70;3.30;;;;;;;6.83;100.00;102267.34;5011696;28;20193;-65
2023/04/20 03:09:16;;;;;;;5.77;3.17;;;;;;;6.84;100.00;102273.28;5019166;28;20297;-65
2023/04/20 03:12:05;;;;;;;7.30;3.13;;;;;;;6.85;100.00;102273.38;5010812;28;20199;-65
2023/04/20 03:14:57;;;;;;;5.93;3.30;;;;;;;6.82;100.00;102262.16;4992400;28;20199;-66
2023/04/20 03:17:33;;;;;;;7.57;3.77;;;;;;;6.82;100.00;102263.00;5019988;28;20210;-64
2023/04/20 03:19:59;;;;;;;6.33;3.33;;;;;;;6.80;100.00;102262.06;5009386;28;20193;-65
2023/04/20 03:22:25;;;;;;;11.13;3.60;;;;;;;6.82;100.00;102268.09;5022968;28;20195;-66
2023/04/20 03:24:54;;;;;;;8.40;3.50;;;;;;;6.80;100.00;102256.97;5002820;28;20182;-65
2023/04/20 03:27:38;;;;;;;7.13;3.77;;;;;;;6.79;100.00;102265.41;5010415;28;20269;-65
2023/04/20 03:30:09;;;;;;;5.40;3.27;;;;;;;6.80;100.00;102264.59;5026803;28;20221;-65
2023/04/20 03:32:34;;;;;;;8.90;3.60;;;;;;;6.75;100.00;102267.66;4988166;28;20652;-65
2023/04/20 03:35:00;;;;;;;9.53;4.27;;;;;;;6.74;100.00;102265.91;5022697;28;20190;-65
2023/04/20 03:37:25;;;;;;;6.67;3.67;;;;;;;6.70;100.00;102274.16;5010382;28;20237;-63
2023/04/20 03:39:51;;;;;;;5.17;3.60;;;;;;;6.72;100.00;102260.75;5009229;28;20218;-64
2023/04/20 03:42:16;;;;;;;7.20;3.93;;;;;;;6.70;100.00;102248.72;5002172;28;20215;-65
2023/04/20 03:44:41;;;;;;;7.77;3.97;;;;;;;6.67;100.00;102246.88;5021956;28;20252;-65
2023/04/20 03:47:09;;;;;;;8.43;4.17;;;;;;;6.69;100.00;102246.97;5018235;28;20194;-65
2023/04/20 03:49:34;;;;;;;9.13;3.33;;;;;;;6.65;100.00;102245.03;5010501;28;20182;-65
2023/04/20 03:52:00;;;;;;;10.40;3.93;;;;;;;6.67;100.00;102244.34;5018711;28;20535;-65
2023/04/20 03:54:25;;;;;;;8.70;4.23;;;;;;;6.65;100.00;102237.41;5024554;28;20808;-64
2023/04/20 03:56:51;;;;;;;14.97;4.63;;;;;;;6.63;100.00;102237.31;5009079;28;20194;-65
2023/04/20 03:59:17;;;;;;;8.70;4.20;;;;;;;6.54;100.00;102239.31;5022797;28;20603;-64
2023/04/20 04:01:45;;;;;;;7.83;4.00;;;;;;;6.61;100.00;102238.91;5018363;28;20210;-65
2023/04/20 04:04:11;;;;;;;8.23;4.20;;;;;;;6.56;100.00;102237.75;5008946;28;20240;-65
2023/04/20 04:06:37;;;;;;;9.50;3.83;;;;;;;6.58;100.00;102236.16;5011258;28;20190;-64
2023/04/20 04:09:02;;;;;;;6.80;4.30;;;;;;;6.54;100.00;102238.47;5018090;28;20222;-65
2023/04/20 04:11:29;;;;;;;9.37;4.67;;;;;;;6.52;100.00;102235.81;5010944;28;20669;-65
2023/04/20 04:13:57;;;;;;;9.90;4.23;;;;;;;6.52;100.00;102242.56;5011095;28;20191;-65
2023/04/20 04:16:23;;;;;;;6.67;4.20;;;;;;;6.54;100.00;102253.72;5015793;28;20210;-65
2023/04/20 04:18:49;;;;;;;9.80;4.30;;;;;;;6.56;100.00;102259.78;5020978;28;20198;-63
2023/04/20 04:21:14;;;;;;;7.83;4.70;;;;;;;6.42;100.00;102258.97;5017838;28;20567;-64
2023/04/20 04:23:45;;;;;;;12.27;4.43;;;;;;;6.51;100.00;102274.78;5020654;28;20205;-65
2023/04/20 04:26:40;;;;;;;12.07;4.47;;;;;;;6.49;100.00;102271.25;5009947;28;20227;-64
2023/04/20 04:29:06;;;;;;;8.20;4.60;;;;;;;6.50;100.00;102262.81;5016272;28;20245;-64
2023/04/20 04:31:32;;;;;;;9.93;4.33;;;;;;;6.49;100.00;102266.16;5008374;28;20182;-64
2023/04/20 04:34:03;;;;;;;9.47;4.43;;;;;;;6.48;100.00;102264.41;5008858;28;20244;-65
2023/04/20 04:36:35;;;;;;;9.90;4.90;;;;;;;6.52;100.00;102265.47;5009610;28;20270;-65
2023/04/20 04:39:01;;;;;;;12.23;5.23;;;;;;;6.48;100.00;102269.50;5009976;28;20778;-65
2023/04/20 04:41:27;;;;;;;9.50;5.10;;;;;;;6.47;100.00;102267.75;5009844;28;20301;-65
2023/04/20 04:43:58;;;;;;;10.83;4.87;;;;;;;6.47;100.00;102269.41;5009376;28;20671;-65
2023/04/20 04:46:28;;;;;;;13.97;5.13;;;;;;;6.43;100.00;102263.28;5010214;28;20178;-65
2023/04/20 04:48:59;;;;;;;11.33;5.43;;;;;;;6.36;100.00;102257.75;5005646;28;20225;-67
2023/04/20 04:51:25;;;;;;;11.90;5.77;;;;;;;6.29;100.00;102253.97;5017367;28;20195;-65
2023/04/20 04:53:50;;;;;;;15.67;5.30;;;;;;;6.30;100.00;102254.81;5020470;28;20195;-64
2023/04/20 04:56:17;;;;;;;11.03;5.43;;;;;;;6.37;100.00;102260.38;5019085;28;20230;-65
2023/04/20 04:58:44;;;;;;;9.67;5.50;;;;;;;6.32;100.00;102264.31;5020724;28;20206;-65
2023/04/20 05:01:10;;;;;;;13.43;5.50;;;;;;;6.38;100.00;102266.31;5020045;28;20305;-64
2023/04/20 05:03:35;;;;;;;13.13;5.87;;;;;;;6.43;100.00;102262.38;5022294;28;20295;-65
2023/04/20 05:06:01;;;;;;;11.73;5.80;;;;;;;6.37;100.00;102269.66;5018110;28;20194;-65
2023/04/20 05:08:26;;;;;;;11.10;6.00;;;;;;;6.34;100.00;102267.81;5019112;28;20696;-65
2023/04/20 05:10:51;;;;;;;11.00;6.40;;;;;;;6.37;100.00;102270.56;5018799;28;20190;-64
2023/04/20 05:13:17;;;;;;;15.23;5.83;;;;;;;6.36;100.00;102266.22;5019349;28;20211;-65
2023/04/20 05:15:42;;;;;;;14.13;6.13;;;;;;;6.41;100.00;102271.59;5021426;28;20191;-66
2023/04/20 05:18:08;;;;;;;12.87;6.23;;;;;;;6.41;100.00;102275.00;5020396;28;20237;-64
2023/04/20 05:20:33;;;;;;;11.33;5.80;;;;;;;6.39;100.00;102268.97;5023504;28;20191;-65
2023/04/20 05:22:59;;;;;;;9.23;5.27;;;;;;;6.42;100.00;102270.81;5025747;28;20298;-65
2023/04/20 05:25:24;;;;;;;10.97;5.67;;;;;;;6.39;100.00;102265.53;5021912;28;20197;-65
2023/04/20 05:27:50;;;;;;;12.87;6.33;;;;;;;6.33;100.00;102261.00;5026524;28;20241;-63
2023/04/20 05:30:15;;;;;;;11.20;5.73;;;;;;;6.38;100.00;102256.16;5023472;28;20190;-65
2023/04/20 05:32:41;;;;;;;11.50;5.53;;;;;;;6.33;100.00;102260.09;5026547;28;20182;-65
2023/04/20 05:35:07;;;;;;;16.87;8.10;;;;;;;6.43;100.00;102267.47;5024392;28;20201;-64
2023/04/20 05:37:32;;;;;;;14.10;9.17;;;;;;;6.49;100.00;102273.81;5022840;28;20216;-64
2023/04/20 05:39:58;;;;;;;15.60;7.63;;;;;;;6.44;100.00;102265.03;5020315;28;20193;-65
2023/04/20 05:42:23;;;;;;;12.37;7.20;;;;;;;6.46;100.00;102275.28;5020497;28;20225;-64
2023/04/20 05:44:48;;;;;;;19.93;11.27;;;;;;;6.48;100.00;102279.69;5021233;28;20198;-65
2023/04/20 05:47:14;;;;;;;17.07;7.43;;;;;;;6.45;100.00;102282.03;5027030;28;20264;-65
2023/04/20 05:49:39;;;;;;;33.27;15.63;;;;;;;6.57;100.00;102282.75;5021450;28;20183;-65
2023/04/20 05:52:05;;;;;;;17.50;8.57;;;;;;;6.55;100.00;102281.81;5020289;28;20657;-63
2023/04/20 05:54:30;;;;;;;18.60;7.40;;;;;;;6.57;100.00;102277.69;5023408;28;20194;-65
2023/04/20 05:56:57;;;;;;;14.03;6.27;;;;;;;6.57;100.00;102279.34;5020191;28;20183;-65
2023/04/20 05:59:24;;;;;;;16.33;6.87;;;;;;;6.62;100.00;102277.94;5022189;28;20221;-65
2023/04/20 06:01:49;;;;;;;15.30;6.83;;;;;;;6.60;100.00;102279.53;5025356;28;20609;-65
2023/04/20 06:04:15;;;;;;;14.83;6.60;;;;;;;6.56;100.00;102273.38;5026471;28;20186;-73
2023/04/20 06:06:40;;;;;;;12.23;6.57;;;;;;;6.60;100.00;102282.06;5025815;28;20992;-74
2023/04/20 06:09:06;;;;;;;14.90;6.70;;;;;;;6.66;100.00;102272.22;5026043;28;20262;-73
2023/04/20 06:11:31;;;;;;;13.60;6.87;;;;;;;6.76;100.00;102283.03;5027806;28;20190;-70
2023/04/20 06:13:57;;;;;;;18.53;7.07;;;;;;;6.74;100.00;102278.66;5009404;28;20253;-72
2023/04/20 06:16:22;;;;;;;11.23;6.53;;;;;;;6.78;100.00;102276.34;5005747;28;20870;-72
2023/04/20 06:18:48;;;;;;;13.63;6.80;;;;;;;6.77;100.00;102272.06;5026019;28;20585;-72
2023/04/20 06:21:14;;;;;;;16.57;6.90;;;;;;;6.78;100.00;102273.81;5022401;28;20738;-71
2023/04/20 06:23:40;;;;;;;15.00;7.17;;;;;;;6.80;100.00;102271.34;5022560;28;20273;-70
2023/04/20 06:26:07;;;;;;;13.53;6.73;;;;;;;6.76;100.00;102270.31;5018948;28;20790;-72
2023/04/20 06:28:34;;;;;;;16.33;7.23;;;;;;;6.83;100.00;102276.63;5022685;28;20583;-73
2023/04/20 06:31:00;;;;;;;12.80;6.20;;;;;;;6.87;100.00;102276.88;5024407;28;20190;-73
2023/04/20 06:33:25;;;;;;;12.60;6.83;;;;;;;6.81;100.00;102273.13;5023955;28;20183;-72
2023/04/20 06:35:53;;;;;;;13.27;6.10;;;;;;;6.83;100.00;102279.19;5025831;28;20285;-71
2023/04/20 06:38:19;;;;;;;15.07;7.10;;;;;;;6.86;100.00;102276.81;5028380;28;20206;-72
2023/04/20 06:40:45;;;;;;;15.43;7.00;;;;;;;6.98;100.00;102286.03;5024773;28;20207;-71
2023/04/20 06:43:10;;;;;;;15.37;6.87;;;;;;;6.95;100.00;102285.84;5023085;28;20209;-72
2023/04/20 06:45:35;;;;;;;15.07;6.83;;;;;;;7.02;100.00;102285.41;5026561;28;20217;-73
2023/04/20 06:48:01;;;;;;;10.73;6.50;;;;;;;7.06;100.00;102284.78;5023646;28;20300;-72
2023/04/20 06:50:26;;;;;;;13.87;6.23;;;;;;;7.05;100.00;102289.78;5018245;28;20191;-74
2023/04/20 06:52:52;;;;;;;16.00;7.10;;;;;;;7.03;100.00;102284.59;5023590;28;20234;-73
2023/04/20 06:55:17;;;;;;;12.53;6.23;;;;;;;7.03;100.00;102297.34;5019014;28;20660;-76
2023/04/20 06:57:43;;;;;;;12.17;6.87;;;;;;;7.02;100.00;102289.59;5023321;28;20217;-72
2023/04/20 07:00:10;;;;;;;13.03;7.17;;;;;;;7.01;100.00;102295.50;5023664;28;20183;-71
2023/04/20 07:02:46;;;;;;;13.53;7.13;;;;;;;6.98;100.00;102302.94;5025101;28;20315;-73
2023/04/20 07:05:12;;;;;;;18.43;8.23;;;;;;;7.02;100.00;102302.34;5006655;28;20887;-72
2023/04/20 07:07:38;;;;;;;16.33;8.93;;;;;;;6.97;100.00;102307.19;5026240;28;20225;-72
2023/04/20 07:10:04;;;;;;;22.23;13.23;;;;;;;6.98;100.00;102298.75;5021946;28;20710;-73
2023/04/20 07:12:29;;;;;;;16.70;10.50;;;;;;;7.03;100.00;102297.34;5019810;28;20854;-73
2023/04/20 07:14:55;;;;;;;15.90;8.20;;;;;;;7.03;100.00;102297.34;5025499;28;20198;-72
2023/04/20 07:17:20;;;;;;;14.73;7.80;;;;;;;7.16;100.00;102297.25;5024787;28;20221;-71
2023/04/20 07:19:46;;;;;;;15.27;7.63;;;;;;;7.26;100.00;102304.59;5026513;28;20194;-72
2023/04/20 07:22:11;;;;;;;12.33;7.07;;;;;;;7.38;100.00;102295.06;5020258;28;20214;-72
2023/04/20 07:24:37;;;;;;;15.30;7.43;;;;;;;7.48;100.00;102297.38;5023885;28;20190;-72
2023/04/20 07:27:02;;;;;;;14.23;7.43;;;;;;;7.51;100.00;102299.19;5022620;28;20230;-71
2023/04/20 07:29:28;;;;;;;15.67;7.10;;;;;;;7.45;100.00;102296.28;5020686;28;20286;-72
2023/04/20 07:31:53;;;;;;;15.00;7.27;;;;;;;7.40;100.00;102302.81;5022148;28;20277;-72
2023/04/20 07:34:18;;;;;;;14.73;7.50;;;;;;;7.33;100.00;102295.63;5024886;28;20209;-72
2023/04/20 07:36:44;;;;;;;15.40;7.70;;;;;;;7.40;100.00;102306.25;5024676;28;20197;-71
2023/04/20 07:39:09;;;;;;;16.30;7.33;;;;;;;7.41;100.00;102302.91;5018062;28;20210;-72
2023/04/20 07:41:35;;;;;;;16.80;7.63;;;;;;;7.42;100.00;102306.34;5023967;28;20215;-71
2023/04/20 07:44:01;;;;;;;15.37;7.33;;;;;;;7.39;100.00;102321.44;5020602;28;20206;-71
2023/04/20 07:46:27;;;;;;;15.37;7.60;;;;;;;7.39;100.00;102335.06;5017392;28;20205;-71
2023/04/20 07:48:53;;;;;;;16.40;8.00;;;;;;;7.42;100.00;102327.56;5025690;28;20345;-71
2023/04/20 07:51:18;;;;;;;18.53;8.00;;;;;;;7.38;100.00;102325.66;5021259;28;20321;-71
2023/04/20 07:53:44;;;;;;;19.37;8.73;;;;;;;7.49;100.00;102323.69;5020981;28;20198;-71
2023/04/20 07:56:09;;;;;;;15.37;8.50;;;;;;;7.54;100.00;102337.56;5018803;28;20190;-70
2023/04/20 07:58:37;;;;;;;14.10;8.27;;;;;;;7.60;100.00;102331.16;5022605;28;20234;-70
2023/04/20 08:01:03;;;;;;;15.20;7.87;;;;;;;7.65;100.00;102322.06;5022151;28;20238;-71
2023/04/20 08:03:28;;;;;;;13.77;7.53;;;;;;;7.70;100.00;102330.00;5024994;28;20845;-71
2023/04/20 08:05:54;;;;;;;14.40;7.93;;;;;;;7.61;100.00;102330.34;5010190;28;20726;-72
2023/04/20 08:08:19;;;;;;;13.30;7.60;;;;;;;7.57;100.00;102336.09;5020254;28;20755;-71
2023/04/20 08:10:45;;;;;;;11.87;7.57;;;;;;;7.59;100.00;102336.16;5023698;28;20660;-71
2023/04/20 08:13:10;;;;;;;13.00;8.70;;;;;;;7.71;100.00;102344.50;5022739;28;20202;-71
2023/04/20 08:15:35;;;;;;;16.83;7.50;;;;;;;7.79;100.00;102328.81;5025773;28;20266;-71
2023/04/20 08:18:01;;;;;;;16.57;8.67;;;;;;;7.99;100.00;102329.88;5026488;28;20941;-71
2023/04/20 08:20:26;;;;;;;14.23;6.80;;;;;;;8.02;100.00;102332.59;5024351;28;20198;-71
2023/04/20 08:22:52;;;;;;;13.83;7.90;;;;;;;8.03;100.00;102324.16;5020076;28;20214;-71
2023/04/20 08:25:17;;;;;;;13.63;6.80;;;;;;;7.98;100.00;102328.13;5019923;28;20198;-75
2023/04/20 08:27:43;;;;;;;13.20;7.53;;;;;;;7.97;100.00;102332.34;5018911;28;20293;-71
2023/04/20 08:30:09;;;;;;;14.17;7.73;;;;;;;8.02;100.00;102340.25;5026083;28;20190;-70
2023/04/20 08:32:34;;;;;;;12.37;7.73;;;;;;;7.99;100.00;102340.97;5025409;28;20233;-70
2023/04/20 08:35:00;;;;;;;11.80;7.27;;;;;;;8.10;100.00;102344.06;5025444;28;20504;-71
2023/04/20 08:37:25;;;;;;;12.87;7.77;;;;;;;8.10;100.00;102344.97;5019844;28;20214;-69
2023/04/20 08:39:51;;;;;;;15.87;7.43;;;;;;;8.17;100.00;102343.63;5023357;28;20710;-71
2023/04/20 08:42:16;;;;;;;12.97;7.23;;;;;;;8.23;100.00;102351.63;5025452;28;20910;-71
2023/04/20 08:44:42;;;;;;;13.00;7.17;;;;;;;8.17;100.00;102346.16;5026925;28;20542;-71
2023/04/20 08:47:12;;;;;;;13.27;7.27;;;;;;;8.13;100.00;102349.34;5022968;28;20195;-73
2023/04/20 08:49:38;;;;;;;11.80;7.83;;;;;;;8.09;100.00;102344.88;5022103;28;20676;-72
2023/04/20 08:52:04;;;;;;;11.33;7.40;;;;;;;8.21;100.00;102338.78;5024674;28;20210;-72
2023/04/20 08:54:30;;;;;;;11.40;7.87;;;;;;;8.14;100.00;102339.22;5022561;28;20191;-70
2023/04/20 08:56:55;;;;;;;14.17;7.80;;;;;;;8.10;100.00;102354.28;5030891;28;20214;-70
2023/04/20 08:59:21;;;;;;;15.10;7.57;;;;;;;8.20;100.00;102351.44;5030030;28;20726;-71
2023/04/20 09:01:46;;;;;;;13.17;7.30;;;;;;;8.26;100.00;102339.91;5014478;28;20206;-72
2023/04/20 09:04:20;;;;;;;13.30;7.10;;;;;;;8.27;100.00;102354.44;5029787;28;20301;-73
2023/04/20 09:06:49;;;;;;;11.93;6.63;;;;;;;8.30;100.00;102351.16;5008149;28;20199;-72
2023/04/20 09:09:14;;;;;;;12.73;6.73;;;;;;;8.37;100.00;102350.66;5026241;28;20572;-71
2023/04/20 09:11:40;;;;;;;13.23;6.97;;;;;;;8.38;100.00;102355.00;5023976;28;20178;-72
2023/04/20 09:14:11;;;;;;;13.47;7.63;;;;;;;8.37;100.00;102350.66;5023889;28;20298;-72
2023/04/20 09:16:50;;;;;;;11.27;6.80;;;;;;;8.32;100.00;102350.44;5030151;28;20658;-71
2023/04/20 09:19:24;;;;;;;12.13;6.40;;;;;;;8.39;100.00;102349.94;5029094;28;20444;-71
2023/04/20 09:21:53;;;;;;;10.27;6.80;;;;;;;8.53;100.00;102348.97;5026364;28;20205;-71
2023/04/20 09:24:20;;;;;;;9.27;6.20;;;;;;;8.48;100.00;102365.75;5019872;28;20736;-73
2023/04/20 09:26:46;;;;;;;13.37;6.50;;;;;;;8.80;100.00;102357.19;5031040;28;20555;-70
2023/04/20 09:29:20;;;;;;;10.70;6.97;;;;;;;9.47;100.00;102345.25;5030850;28;20210;-70
2023/04/20 09:31:46;;;;;;;10.00;6.27;;;;;;;9.89;100.00;102341.25;5028951;28;20193;-71
2023/04/20 09:34:12;;;;;;;12.87;6.23;;;;;;;9.85;100.00;102342.78;5031214;28;20182;-71
2023/04/20 09:36:46;;;;;;;10.40;6.50;;;;;;;9.75;100.00;102348.28;5029262;28;20558;-70
2023/04/20 09:39:14;;;;;;;9.93;6.20;;;;;;;9.93;100.00;102343.16;5026550;28;20218;-72
2023/04/20 09:41:41;;;;;;;11.60;7.03;;;;;;;10.16;100.00;102335.75;5024683;28;20221;-71
2023/04/20 09:44:08;;;;;;;8.97;5.83;;;;;;;10.03;100.00;102342.75;5027082;28;20314;-71
2023/04/20 09:46:38;;;;;;;7.63;5.87;;;;;;;9.77;100.00;102351.78;5029364;28;20656;-71
2023/04/20 09:49:05;;;;;;;11.80;5.77;;;;;;;9.71;100.00;102353.19;5029669;28;20247;-71
2023/04/20 09:51:34;;;;;;;11.30;6.37;;;;;;;9.88;100.00;102360.84;5030016;28;20200;-71
2023/04/20 09:54:02;;;;;;;10.00;6.03;;;;;;;9.85;100.00;102357.25;5010003;28;20198;-74
2023/04/20 09:56:28;;;;;;;8.57;5.87;;;;;;;9.86;100.00;102366.72;5030562;28;20229;-71
2023/04/20 09:58:54;;;;;;;8.30;5.43;;;;;;;9.67;100.00;102361.53;5029160;28;20204;-71
2023/04/20 10:01:23;;;;;;;11.93;6.30;;;;;;;9.80;100.00;102372.41;5029354;28;20684;-69
2023/04/20 10:03:52;;;;;;;10.23;6.13;;;;;;;9.66;100.00;102373.44;5010179;28;20198;-68
2023/04/20 10:06:26;;;;;;;10.23;5.97;;;;;;;9.67;100.00;102367.50;5026988;28;20600;-69
2023/04/20 10:08:52;;;;;;;11.47;6.73;;;;;;;9.80;100.00;102377.53;5024729;28;20930;-74
2023/04/20 10:11:28;;;;;;;13.43;5.80;;;;;;;9.78;100.00;102368.03;5024977;28;20251;-74
2023/04/20 10:13:54;;;;;;;12.67;6.03;;;;;;;9.85;100.00;102363.25;5026750;28;20196;-71
2023/04/20 10:16:20;;;;;;;8.63;6.10;;;;;;;9.85;100.00;102378.63;5029109;28;20239;-71
2023/04/20 10:19:03;;;;;;;9.60;5.60;;;;;;;9.87;100.00;102374.44;5030417;28;20674;-71
2023/04/20 10:21:32;;;;;;;10.83;5.27;;;;;;;10.03;100.00;102369.22;5020779;28;20264;-70
2023/04/20 10:24:02;;;;;;;11.67;6.13;;;;;;;10.18;100.00;102367.41;5024991;28;20190;-71
2023/04/20 10:26:38;;;;;;;9.87;5.93;;;;;;;10.38;100.00;102368.28;5027757;28;20212;-72
2023/04/20 10:29:07;;;;;;;11.20;6.10;;;;;;;10.08;100.00;102364.34;5026867;28;20232;-71
2023/04/20 10:31:40;;;;;;;13.73;6.40;;;;;;;9.85;100.00;102362.38;5025602;28;20252;-71
2023/04/20 10:34:06;;;;;;;10.43;5.93;;;;;;;9.99;100.00;102359.66;5028445;28;20198;-71
2023/04/20 10:36:35;;;;;;;10.47;5.57;;;;;;;10.07;100.00;102360.94;5028199;28;20294;-72
2023/04/20 10:39:13;;;;;;;12.93;6.10;;;;;;;10.06;100.00;102354.06;5022336;28;20218;-70
2023/04/20 10:41:53;;;;;;;9.70;5.63;;;;;;;10.17;100.00;102357.97;5023675;28;20213;-69
2023/04/20 10:44:19;;;;;;;11.07;6.13;;;;;;;10.18;100.00;102356.31;5021937;28;20205;-73
2023/04/20 10:46:49;;;;;;;9.30;5.93;;;;;;;10.06;100.00;102356.63;5024608;28;20671;-70
2023/04/20 10:49:15;;;;;;;11.77;6.33;;;;;;;10.05;100.00;102356.53;5028735;28;20214;-72
2023/04/20 10:51:51;;;;;;;10.23;5.93;;;;;;;10.03;100.00;102358.09;5017299;28;20219;-72
2023/04/20 10:54:18;;;;;;;8.97;5.37;;;;;;;10.02;100.00;102356.34;5023865;28;20198;-71
2023/04/20 10:56:50;;;;;;;12.83;5.90;;;;;;;9.91;100.00;102355.84;5023385;28;20191;-72
2023/04/20 10:59:21;;;;;;;12.63;6.53;;;;;;;9.93;100.00;102355.94;5025889;28;20202;-71
2023/04/20 11:01:48;;;;;;;10.43;6.03;;;;;;;9.87;100.00;102346.28;5027717;28;20225;-72
2023/04/20 11:04:14;;;;;;;11.27;6.00;;;;;;;9.88;100.00;102342.94;5029272;28;20194;-69
2023/04/20 11:06:41;;;;;;;11.70;6.23;;;;;;;9.94;100.00;102345.78;5021827;28;20197;-70
2023/04/20 11:09:22;;;;;;;15.13;6.50;;;;;;;10.13;100.00;102355.22;5024130;28;20217;-70
2023/04/20 11:12:02;;;;;;;9.40;5.97;;;;;;;10.24;100.00;102346.31;5024953;28;20197;-70
2023/04/20 11:14:29;;;;;;;8.50;5.63;;;;;;;10.25;100.00;102353.19;5022150;28;20186;-70
2023/04/20 11:16:55;;;;;;;8.77;6.27;;;;;;;10.24;100.00;102352.34;5023346;28;20674;-69
2023/04/20 11:19:29;;;;;;;10.40;5.70;;;;;;;10.29;100.00;102342.28;4996333;28;20198;-74